Time;durP1;ratioP1;P1;durP2;ratioP2;P2;SDS_P1;SDS_P2;PMS_P1;PMS_P2;Temp;Humidity;BMP_temperature;BMP_pressure;BME280_temperature;BME280_humidity;BME280_pressure;Samples;Min_cycle;Max_cycle;Signal;HPM_P1;HPM_P2
2022/07/07 00:00:06;;;;;;;0.80;0.80;;;;;;;;;;4993324;28;99925;-61
2022/07/07 00:02:32;;;;;;;1.23;0.90;;;;;;;;;;4993873;28;98712;-61
2022/07/07 00:04:58;;;;;;;0.90;0.90;;;;;;;;;;4993351;28;99119;-61
2022/07/07 00:07:25;;;;;;;1.02;0.85;;;;;;;;;;4993832;28;98719;-61
2022/07/07 00:09:51;;;;;;;1.58;1.10;;;;;;;;;;4993928;28;98544;-61
2022/07/07 00:12:18;;;;;;;1.80;1.00;;;;;;;;;;4993919;28;99096;-61
2022/07/07 00:14:44;;;;;;;1.02;1.00;;;;;;;;;;4992167;28;100141;-61
2022/07/07 00:17:11;;;;;;;2.17;1.20;;;;;;;;;;4995724;28;99194;-61
2022/07/07 00:19:37;;;;;;;1.27;1.00;;;;;;;;;;4992960;28;99825;-61
2022/07/07 00:22:03;;;;;;;3.25;0.98;;;;;;;;;;4993952;28;98534;-61
2022/07/07 00:24:30;;;;;;;1.23;0.98;;;;;;;;;;4993556;28;99294;-61
2022/07/07 00:26:56;;;;;;;1.65;0.98;;;;;;;;;;4993201;28;99598;-61
2022/07/07 00:29:23;;;;;;;0.82;0.82;;;;;;;;;;4993101;28;98528;-61
2022/07/07 00:31:49;;;;;;;0.95;0.88;;;;;;;;;;4993777;28;99342;-61
2022/07/07 00:34:15;;;;;;;1.55;1.00;;;;;;;;;;4993042;28;99593;-61
2022/07/07 00:36:43;;;;;;;1.75;1.05;;;;;;;;;;4993376;28;98515;-61
2022/07/07 00:39:09;;;;;;;1.05;0.95;;;;;;;;;;4995340;28;99239;-61
2022/07/07 00:41:35;;;;;;;1.30;0.90;;;;;;;;;;4993456;28;98523;-61
2022/07/07 00:44:01;;;;;;;1.50;1.00;;;;;;;;;;4993091;28;99207;-61
2022/07/07 00:46:41;;;;;;;1.15;1.00;;;;;;;;;;4992912;28;100999;-61
2022/07/07 00:49:08;;;;;;;1.63;0.97;;;;;;;;;;4992952;28;98640;-61
2022/07/07 00:51:34;;;;;;;1.00;0.82;;;;;;;;;;4993025;28;99151;-61
2022/07/07 00:54:01;;;;;;;1.25;1.00;;;;;;;;;;4992626;28;99646;-61
2022/07/07 00:56:27;;;;;;;1.20;1.10;;;;;;;;;;4992882;28;97770;-61
2022/07/07 00:58:53;;;;;;;1.55;1.00;;;;;;;;;;4995943;28;99875;-61
2022/07/07 01:01:20;;;;;;;1.55;0.95;;;;;;;;;;4993610;28;98535;-61
2022/07/07 01:03:46;;;;;;;0.90;0.90;;;;;;;;;;4992410;28;99676;-61
2022/07/07 01:06:13;;;;;;;1.40;0.90;;;;;;;;;;4992566;28;99621;-61
2022/07/07 01:08:39;;;;;;;2.08;1.17;;;;;;;;;;4992788;28;98583;-61
2022/07/07 01:11:05;;;;;;;0.95;0.80;;;;;;;;;;4992685;28;99486;-61
2022/07/07 01:13:32;;;;;;;1.10;0.95;;;;;;;;;;4992520;28;101053;-61
2022/07/07 01:15:58;;;;;;;1.25;0.95;;;;;;;;;;4992460;28;98783;-61
2022/07/07 01:18:25;;;;;;;1.05;0.95;;;;;;;;;;4992296;28;100169;-61
2022/07/07 01:20:51;;;;;;;1.67;1.00;;;;;;;;;;4996150;28;98752;-61
2022/07/07 01:23:17;;;;;;;0.88;0.88;;;;;;;;;;4992690;28;98519;-61
2022/07/07 01:25:43;;;;;;;2.15;1.08;;;;;;;;;;4992122;28;99492;-61
2022/07/07 01:28:10;;;;;;;0.90;0.90;;;;;;;;;;4991797;28;99372;-61
2022/07/07 01:30:36;;;;;;;1.25;0.82;;;;;;;;;;4992496;28;99905;-61
2022/07/07 01:33:02;;;;;;;1.90;1.00;;;;;;;;;;4992018;28;99564;-61
2022/07/07 01:35:29;;;;;;;1.70;1.10;;;;;;;;;;4992043;28;98596;-61
2022/07/07 01:37:55;;;;;;;1.25;0.90;;;;;;;;;;4992270;28;99148;-63
2022/07/07 01:40:22;;;;;;;1.58;0.90;;;;;;;;;;4992036;28;99645;-61
2022/07/07 01:42:48;;;;;;;1.65;1.15;;;;;;;;;;4995744;28;98555;-62
2022/07/07 01:45:14;;;;;;;2.38;0.90;;;;;;;;;;4992167;28;98781;-61
2022/07/07 01:47:40;;;;;;;1.80;1.52;;;;;;;;;;4992224;28;98906;-61
2022/07/07 01:50:07;;;;;;;1.65;1.00;;;;;;;;;;4992163;28;99157;-61
2022/07/07 01:52:35;;;;;;;1.58;0.90;;;;;;;;;;4991110;28;100372;-61
2022/07/07 01:55:01;;;;;;;1.30;1.00;;;;;;;;;;4991972;28;98782;-62
2022/07/07 01:57:27;;;;;;;1.88;1.08;;;;;;;;;;4992054;28;99245;-61
2022/07/07 01:59:54;;;;;;;1.85;0.93;;;;;;;;;;4991252;28;99822;-61
2022/07/07 02:02:20;;;;;;;1.38;0.80;;;;;;;;;;4992069;28;99387;-61
2022/07/07 02:04:46;;;;;;;1.10;1.00;;;;;;;;;;4994609;28;99138;-61
2022/07/07 02:07:12;;;;;;;1.55;1.00;;;;;;;;;;4990931;28;98517;-61
2022/07/07 02:09:39;;;;;;;2.03;0.90;;;;;;;;;;4992144;28;98306;-62
2022/07/07 02:12:06;;;;;;;2.70;1.00;;;;;;;;;;4991441;28;100015;-61
2022/07/07 02:14:32;;;;;;;1.02;0.93;;;;;;;;;;4991833;28;98527;-61
2022/07/07 02:16:58;;;;;;;1.27;1.17;;;;;;;;;;4990827;28;99267;-61
2022/07/07 02:19:25;;;;;;;2.35;0.93;;;;;;;;;;4991034;28;99588;-61
2022/07/07 02:21:52;;;;;;;0.90;0.90;;;;;;;;;;4991485;28;98636;-61
2022/07/07 02:24:18;;;;;;;0.95;0.90;;;;;;;;;;4991668;28;99141;-61
2022/07/07 02:26:45;;;;;;;1.58;0.93;;;;;;;;;;4994447;28;99829;-61
2022/07/07 02:29:11;;;;;;;1.35;1.00;;;;;;;;;;4991815;28;99303;-62
2022/07/07 02:31:38;;;;;;;0.98;0.90;;;;;;;;;;4991162;28;99796;-61
2022/07/07 02:34:04;;;;;;;3.92;1.30;;;;;;;;;;4992191;28;97757;-62
2022/07/07 02:36:31;;;;;;;2.08;0.93;;;;;;;;;;4991162;28;99385;-61
2022/07/07 02:38:57;;;;;;;1.33;1.00;;;;;;;;;;4991375;28;99633;-62
2022/07/07 02:41:23;;;;;;;0.90;0.90;;;;;;;;;;4990900;28;99288;-62
2022/07/07 02:43:50;;;;;;;0.82;0.82;;;;;;;;;;4989927;28;99932;-61
2022/07/07 02:46:16;;;;;;;0.82;0.80;;;;;;;;;;4990581;28;99473;-61
2022/07/07 02:48:43;;;;;;;1.70;1.00;;;;;;;;;;4994916;28;98552;-61
2022/07/07 02:51:09;;;;;;;1.13;1.00;;;;;;;;;;4989542;28;99674;-61
2022/07/07 02:53:36;;;;;;;1.83;1.08;;;;;;;;;;4991248;28;98498;-61
2022/07/07 02:56:02;;;;;;;1.77;0.77;;;;;;;;;;4991120;28;99215;-61
2022/07/07 02:58:29;;;;;;;1.42;0.90;;;;;;;;;;4991425;28;99850;-61
2022/07/07 03:00:55;;;;;;;0.70;0.70;;;;;;;;;;4990870;28;99105;-62
2022/07/07 03:03:22;;;;;;;1.13;0.80;;;;;;;;;;4990839;28;99216;-61
2022/07/07 03:05:49;;;;;;;2.05;1.00;;;;;;;;;;4990113;28;100786;-61
2022/07/07 03:08:15;;;;;;;0.80;0.80;;;;;;;;;;4994291;28;98532;-61
2022/07/07 03:10:41;;;;;;;0.75;0.75;;;;;;;;;;4990618;28;99561;-61
2022/07/07 03:13:08;;;;;;;1.10;0.80;;;;;;;;;;4991162;28;98540;-62
2022/07/07 03:15:34;;;;;;;1.77;0.80;;;;;;;;;;4990857;28;100307;-61
2022/07/07 03:18:00;;;;;;;1.00;0.90;;;;;;;;;;4989627;28;99495;-62
2022/07/07 03:20:27;;;;;;;0.70;0.70;;;;;;;;;;4990546;28;98566;-61
2022/07/07 03:22:53;;;;;;;0.88;0.70;;;;;;;;;;4991239;28;99202;-61
2022/07/07 03:25:20;;;;;;;0.77;0.77;;;;;;;;;;4990255;28;99680;-62
2022/07/07 03:27:46;;;;;;;0.82;0.70;;;;;;;;;;4990998;28;98514;-61
2022/07/07 03:30:12;;;;;;;1.33;0.70;;;;;;;;;;4993298;28;100129;-61
2022/07/07 03:32:39;;;;;;;0.70;0.70;;;;;;;;;;4990570;28;98557;-61
2022/07/07 03:35:08;;;;;;;0.70;0.70;;;;;;;;;;4991016;28;101412;-61
2022/07/07 03:37:35;;;;;;;0.65;0.65;;;;;;;;;;4990299;28;100482;-61
2022/07/07 03:40:03;;;;;;;0.73;0.70;;;;;;;;;;4990530;28;98498;-61
2022/07/07 03:42:29;;;;;;;0.70;0.70;;;;;;;;;;4990195;28;99683;-61
2022/07/07 03:44:55;;;;;;;1.35;0.80;;;;;;;;;;4990462;28;100309;-61
2022/07/07 03:47:22;;;;;;;0.82;0.73;;;;;;;;;;4971106;28;98146;-61
2022/07/07 03:49:48;;;;;;;0.85;0.60;;;;;;;;;;4970771;28;98476;-61
2022/07/07 03:52:16;;;;;;;1.85;0.80;;;;;;;;;;4973316;28;99611;-61
2022/07/07 03:54:42;;;;;;;0.85;0.70;;;;;;;;;;4970256;28;99333;-61
2022/07/07 03:57:09;;;;;;;1.10;0.88;;;;;;;;;;4969965;28;99455;-61
2022/07/07 03:59:35;;;;;;;0.60;0.60;;;;;;;;;;4970384;28;98771;-63
2022/07/07 04:02:02;;;;;;;0.70;0.70;;;;;;;;;;4970381;28;99472;-61
2022/07/07 04:04:29;;;;;;;0.75;0.70;;;;;;;;;;4969817;28;99465;-61
2022/07/07 04:06:55;;;;;;;1.17;0.82;;;;;;;;;;4968759;28;98575;-61
2022/07/07 04:09:22;;;;;;;1.27;0.75;;;;;;;;;;4970785;28;100268;-61
2022/07/07 04:11:48;;;;;;;0.73;0.70;;;;;;;;;;4969229;28;98946;-61
2022/07/07 04:14:14;;;;;;;0.93;0.80;;;;;;;;;;4973447;28;98510;-61
2022/07/07 04:16:41;;;;;;;2.95;0.65;;;;;;;;;;4983723;28;99511;-61
2022/07/07 04:19:07;;;;;;;0.95;0.75;;;;;;;;;;4989632;28;99284;-61
2022/07/07 04:21:33;;;;;;;1.67;0.73;;;;;;;;;;4990167;28;100985;-61
2022/07/07 04:24:00;;;;;;;0.77;0.75;;;;;;;;;;4989776;28;98876;-61
2022/07/07 04:26:26;;;;;;;0.63;0.63;;;;;;;;;;4989908;28;98525;-61
2022/07/07 04:28:53;;;;;;;0.80;0.70;;;;;;;;;;4990307;28;99159;-61
2022/07/07 04:31:19;;;;;;;0.93;0.60;;;;;;;;;;4992623;28;100635;-61
2022/07/07 04:33:46;;;;;;;0.80;0.80;;;;;;;;;;4993763;28;98496;-61
2022/07/07 04:36:14;;;;;;;0.65;0.65;;;;;;;;;;4996742;28;100514;-62
2022/07/07 04:38:40;;;;;;;1.35;0.70;;;;;;;;;;4993716;28;98556;-61
2022/07/07 04:41:07;;;;;;;1.17;0.75;;;;;;;;;;4993247;28;99368;-61
2022/07/07 04:43:33;;;;;;;1.23;0.73;;;;;;;;;;4991019;28;101709;-61
2022/07/07 04:45:59;;;;;;;1.10;0.88;;;;;;;;;;4993147;28;98516;-62
2022/07/07 04:48:26;;;;;;;0.68;0.68;;;;;;;;;;4993123;28;99293;-61
2022/07/07 04:50:52;;;;;;;1.25;0.60;;;;;;;;;;4992913;28;99575;-61
2022/07/07 04:53:19;;;;;;;1.52;1.05;;;;;;;;;;4992983;28;98910;-61
2022/07/07 04:55:45;;;;;;;1.13;0.80;;;;;;;;;;4995851;28;99594;-60
2022/07/07 04:58:12;;;;;;;0.47;0.47;;;;;;;;;;4993110;28;98775;-61
2022/07/07 05:00:38;;;;;;;1.98;0.70;;;;;;;;;;4993478;28;99263;-61
2022/07/07 05:03:04;;;;;;;1.77;0.82;;;;;;;;;;4992127;28;99579;-61
2022/07/07 05:05:30;;;;;;;2.00;0.93;;;;;;;;;;4992992;28;98596;-61
2022/07/07 05:07:57;;;;;;;3.30;0.80;;;;;;;;;;4992309;28;99843;-61
2022/07/07 05:10:23;;;;;;;1.30;0.80;;;;;;;;;;4992659;28;100564;-61
2022/07/07 05:12:50;;;;;;;1.20;0.88;;;;;;;;;;4992377;28;98496;-61
2022/07/07 05:15:16;;;;;;;0.60;0.60;;;;;;;;;;4992370;28;99490;-61
2022/07/07 05:17:42;;;;;;;0.57;0.57;;;;;;;;;;4995006;28;99823;-61
2022/07/07 05:20:09;;;;;;;1.52;0.80;;;;;;;;;;4992781;28;100211;-61
2022/07/07 05:22:35;;;;;;;0.75;0.70;;;;;;;;;;4992345;28;100703;-62
2022/07/07 05:25:01;;;;;;;1.00;0.50;;;;;;;;;;4993140;28;97785;-62
2022/07/07 05:27:28;;;;;;;0.77;0.57;;;;;;;;;;4992528;28;98552;-61
2022/07/07 05:29:54;;;;;;;0.82;0.60;;;;;;;;;;4992003;28;99992;-61
2022/07/07 05:32:20;;;;;;;0.45;0.45;;;;;;;;;;4991667;28;99280;-61
2022/07/07 05:34:46;;;;;;;1.30;0.70;;;;;;;;;;4992669;28;100238;-61
2022/07/07 05:37:13;;;;;;;1.20;0.68;;;;;;;;;;4990745;28;99880;-61
2022/07/07 05:39:39;;;;;;;2.53;1.10;;;;;;;;;;4995660;28;98642;-61
2022/07/07 05:42:05;;;;;;;1.42;0.60;;;;;;;;;;4990676;28;99600;-61
2022/07/07 05:44:31;;;;;;;1.20;0.60;;;;;;;;;;4992555;28;98547;-62
2022/07/07 05:46:58;;;;;;;2.53;0.82;;;;;;;;;;4992407;28;99264;-61
2022/07/07 05:49:24;;;;;;;0.70;0.60;;;;;;;;;;4992396;28;99797;-61
2022/07/07 05:51:51;;;;;;;2.03;0.73;;;;;;;;;;4992025;28;98531;-61
2022/07/07 05:54:17;;;;;;;2.92;0.95;;;;;;;;;;4991859;28;99160;-61
2022/07/07 05:56:44;;;;;;;1.02;0.70;;;;;;;;;;4991251;28;100606;-61
2022/07/07 05:59:10;;;;;;;1.27;0.60;;;;;;;;;;4992007;28;98487;-61
2022/07/07 06:01:36;;;;;;;1.60;0.90;;;;;;;;;;4995171;28;100226;-61
2022/07/07 06:04:03;;;;;;;1.38;0.60;;;;;;;;;;4991604;28;98418;-61
2022/07/07 06:06:29;;;;;;;2.38;1.08;;;;;;;;;;4991908;28;99407;-61
2022/07/07 06:08:56;;;;;;;3.35;0.90;;;;;;;;;;4991515;28;99619;-61
2022/07/07 06:11:22;;;;;;;2.85;0.82;;;;;;;;;;4992002;28;98528;-61
2022/07/07 06:13:50;;;;;;;1.23;0.75;;;;;;;;;;4992291;28;100546;-61
2022/07/07 06:16:16;;;;;;;4.28;1.10;;;;;;;;;;4991456;28;99888;-61
2022/07/07 06:18:43;;;;;;;0.75;0.60;;;;;;;;;;4991439;28;98500;-61
2022/07/07 06:21:09;;;;;;;1.38;0.68;;;;;;;;;;4991183;28;99259;-61
2022/07/07 06:23:35;;;;;;;1.85;0.77;;;;;;;;;;4994516;28;99602;-62
2022/07/07 06:26:02;;;;;;;1.25;0.65;;;;;;;;;;4991772;28;99251;-61
2022/07/07 06:28:29;;;;;;;1.52;1.00;;;;;;;;;;4991240;28;99514;-61
2022/07/07 06:30:55;;;;;;;2.30;1.10;;;;;;;;;;4991541;28;98552;-61
2022/07/07 06:33:22;;;;;;;1.23;0.73;;;;;;;;;;4991744;28;99117;-61
2022/07/07 06:35:48;;;;;;;1.10;0.50;;;;;;;;;;4989119;28;100900;-61
2022/07/07 06:38:14;;;;;;;2.08;0.93;;;;;;;;;;4976048;28;97783;-61
2022/07/07 06:40:40;;;;;;;1.42;0.70;;;;;;;;;;4989660;28;98796;-61
2022/07/07 06:43:13;;;;;;;1.95;0.80;;;;;;;;;;4986774;28;99874;-62
2022/07/07 06:45:39;;;;;;;2.45;1.00;;;;;;;;;;4980333;28;99274;-61
2022/07/07 06:48:06;;;;;;;1.67;0.90;;;;;;;;;;4990865;28;99535;-61
2022/07/07 06:50:32;;;;;;;2.00;1.00;;;;;;;;;;4991098;28;98512;-61
2022/07/07 06:52:58;;;;;;;1.67;0.90;;;;;;;;;;4990756;28;99239;-61
2022/07/07 06:55:25;;;;;;;2.17;0.82;;;;;;;;;;4990947;28;99950;-61
2022/07/07 06:57:51;;;;;;;3.15;1.20;;;;;;;;;;4991320;28;98492;-61
2022/07/07 07:00:17;;;;;;;3.60;1.08;;;;;;;;;;4991240;28;99265;-62
2022/07/07 07:02:44;;;;;;;1.45;0.68;;;;;;;;;;4990999;28;99010;-61
2022/07/07 07:05:11;;;;;;;1.95;0.85;;;;;;;;;;4994356;28;98467;-61
2022/07/07 07:07:37;;;;;;;1.15;0.60;;;;;;;;;;4990969;28;100551;-61
2022/07/07 07:10:04;;;;;;;1.45;0.73;;;;;;;;;;4990545;28;99203;-61
2022/07/07 07:12:30;;;;;;;1.27;0.80;;;;;;;;;;4991090;28;101369;-62
2022/07/07 07:14:56;;;;;;;1.30;0.70;;;;;;;;;;4990919;28;99828;-61
2022/07/07 07:17:22;;;;;;;1.55;0.68;;;;;;;;;;4970809;28;98559;-61
2022/07/07 07:19:49;;;;;;;1.98;0.90;;;;;;;;;;4969449;28;99246;-61
2022/07/07 07:22:15;;;;;;;2.47;0.95;;;;;;;;;;4970468;28;99650;-61
2022/07/07 07:24:41;;;;;;;2.05;0.85;;;;;;;;;;4970924;28;98550;-61
2022/07/07 07:27:08;;;;;;;1.10;0.85;;;;;;;;;;4974437;28;99468;-61
2022/07/07 07:29:34;;;;;;;1.40;0.80;;;;;;;;;;4971232;28;98556;-61
2022/07/07 07:32:01;;;;;;;1.98;0.70;;;;;;;;;;4970799;28;99516;-62
2022/07/07 07:34:27;;;;;;;2.22;0.98;;;;;;;;;;4969792;28;100253;-61
2022/07/07 07:36:53;;;;;;;1.40;0.75;;;;;;;;;;4970886;28;98755;-61
2022/07/07 07:39:20;;;;;;;1.05;0.60;;;;;;;;;;4970632;28;99514;-61
2022/07/07 07:41:46;;;;;;;3.40;0.75;;;;;;;;;;4970366;28;99620;-61
2022/07/07 07:44:12;;;;;;;1.02;0.73;;;;;;;;;;4970833;28;99749;-61
2022/07/07 07:46:39;;;;;;;1.73;0.80;;;;;;;;;;4985117;28;100214;-61
2022/07/07 07:49:06;;;;;;;0.98;0.70;;;;;;;;;;4993294;28;99616;-61
2022/07/07 07:51:32;;;;;;;1.88;0.75;;;;;;;;;;4990929;28;99416;-61
2022/07/07 07:53:58;;;;;;;1.90;0.75;;;;;;;;;;4990234;28;98949;-61
2022/07/07 07:56:25;;;;;;;2.90;1.08;;;;;;;;;;4990552;28;98538;-61
2022/07/07 07:58:51;;;;;;;1.83;0.90;;;;;;;;;;4990159;28;99242;-61
2022/07/07 08:01:18;;;;;;;2.60;0.88;;;;;;;;;;4989729;28;99364;-61
2022/07/07 08:03:44;;;;;;;3.30;1.00;;;;;;;;;;4989124;28;98539;-61
2022/07/07 08:06:10;;;;;;;1.48;0.85;;;;;;;;;;4992987;28;100275;-61
2022/07/07 08:08:37;;;;;;;2.47;0.60;;;;;;;;;;4993286;28;99637;-61
2022/07/07 08:11:03;;;;;;;1.77;0.75;;;;;;;;;;4997028;28;98719;-61
2022/07/07 08:13:30;;;;;;;0.93;0.70;;;;;;;;;;4993232;28;99700;-61
2022/07/07 08:15:57;;;;;;;2.67;0.98;;;;;;;;;;4994014;28;97752;-61
2022/07/07 08:18:26;;;;;;;1.58;0.75;;;;;;;;;;4993535;28;98610;-61
2022/07/07 08:20:53;;;;;;;;;;;;;;;;;;4992604;28;99663;-61
2022/07/07 08:23:19;;;;;;;1.35;0.47;;;;;;;;;;4993715;28;118508;-62
2022/07/07 08:25:45;;;;;;;0.75;0.60;;;;;;;;;;4993523;28;100062;-61
2022/07/07 08:28:12;;;;;;;1.52;0.60;;;;;;;;;;4993222;28;99619;-61
2022/07/07 08:30:38;;;;;;;1.00;0.70;;;;;;;;;;4993327;28;98506;-61
2022/07/07 08:33:05;;;;;;;2.17;1.00;;;;;;;;;;4996185;28;99222;-61
2022/07/07 08:35:31;;;;;;;1.40;0.70;;;;;;;;;;4993496;28;98441;-62
2022/07/07 08:37:58;;;;;;;1.50;0.70;;;;;;;;;;4993570;28;100271;-61
2022/07/07 08:40:24;;;;;;;2.10;0.73;;;;;;;;;;4993934;28;98937;-61
2022/07/07 08:42:57;;;;;;;1.65;0.93;;;;;;;;;;4992859;28;98518;-62
2022/07/07 08:45:23;;;;;;;1.30;0.60;;;;;;;;;;4993111;28;99701;-61
2022/07/07 08:47:49;;;;;;;2.03;0.70;;;;;;;;;;4992509;28;101256;-61
2022/07/07 08:50:16;;;;;;;1.25;0.57;;;;;;;;;;4993141;28;98535;-61
2022/07/07 08:52:43;;;;;;;0.75;0.70;;;;;;;;;;4993004;28;99375;-61
2022/07/07 08:55:11;;;;;;;1.55;0.88;;;;;;;;;;4995981;28;99836;-61
2022/07/07 08:57:38;;;;;;;1.50;0.60;;;;;;;;;;4991744;28;100284;-62
2022/07/07 09:00:04;;;;;;;1.35;0.70;;;;;;;;;;4992909;28;100572;-61
2022/07/07 09:02:31;;;;;;;0.88;0.63;;;;;;;;;;4992803;28;98471;-61
2022/07/07 09:04:57;;;;;;;1.10;0.63;;;;;;;;;;4993501;28;99317;-61
2022/07/07 09:07:24;;;;;;;1.00;0.70;;;;;;;;;;4992560;28;100774;-61
2022/07/07 09:09:52;;;;;;;1.58;0.57;;;;;;;;;;4992925;28;98583;-61
2022/07/07 09:12:20;;;;;;;0.63;0.50;;;;;;;;;;4992178;28;99540;-61
2022/07/07 09:14:48;;;;;;;0.77;0.32;;;;;;;;;;4995903;28;99569;-61
2022/07/07 09:17:16;;;;;;;1.98;0.60;;;;;;;;;;4992032;28;99129;-61
2022/07/07 09:19:43;;;;;;;3.30;0.50;;;;;;;;;;4992275;28;99729;-61
2022/07/07 09:22:11;;;;;;;1.23;0.90;;;;;;;;;;4992497;28;98534;-61
2022/07/07 09:24:54;;;;;;;0.75;0.50;;;;;;;;;;4992746;28;100268;-62
2022/07/07 09:27:20;;;;;;;1.05;0.85;;;;;;;;;;4992077;28;100042;-61
2022/07/07 09:29:47;;;;;;;0.32;0.32;;;;;;;;;;4993163;28;97749;-61
2022/07/07 09:32:13;;;;;;;0.45;0.45;;;;;;;;;;4992296;28;98841;-61
2022/07/07 09:34:39;;;;;;;1.30;0.65;;;;;;;;;;4992040;28;99799;-61
2022/07/07 09:39:54;;;;;;;0.43;0.43;;;;;;;;;;4992027;28;99219;-61
2022/07/07 09:42:34;;;;;;;1.95;0.70;;;;;;;;;;4992313;28;98546;-61
2022/07/07 09:45:03;;;;;;;1.15;0.65;;;;;;;;;;4992074;28;99126;-61
2022/07/07 09:47:29;;;;;;;1.70;0.70;;;;;;;;;;4991750;28;100027;-61
2022/07/07 09:50:06;;;;;;;0.93;0.60;;;;;;;;;;4992564;28;98412;-61
2022/07/07 09:52:34;;;;;;;1.25;0.52;;;;;;;;;;4992282;28;99337;-61
2022/07/07 09:55:00;;;;;;;1.23;0.70;;;;;;;;;;4992215;28;99001;-61
2022/07/07 09:57:27;;;;;;;0.65;0.40;;;;;;;;;;4992248;28;98512;-61
2022/07/07 09:59:53;;;;;;;1.65;0.77;;;;;;;;;;4995072;28;98426;-61
2022/07/07 10:02:29;;;;;;;2.92;0.88;;;;;;;;;;4990969;28;99536;-61
2022/07/07 10:04:57;;;;;;;0.52;0.52;;;;;;;;;;4992006;28;99959;-61
2022/07/07 10:07:25;;;;;;;0.63;0.40;;;;;;;;;;4991436;28;99555;-61
2022/07/07 10:09:53;;;;;;;1.45;0.70;;;;;;;;;;4992304;28;98767;-61
2022/07/07 10:12:20;;;;;;;1.27;0.70;;;;;;;;;;4991580;28;99278;-61
2022/07/07 10:14:48;;;;;;;1.13;0.52;;;;;;;;;;4991489;28;99807;-61
2022/07/07 10:17:16;;;;;;;0.40;0.30;;;;;;;;;;4991638;28;98451;-61
2022/07/07 10:19:44;;;;;;;1.67;0.50;;;;;;;;;;4992403;28;100197;-61
2022/07/07 10:22:10;;;;;;;0.40;0.40;;;;;;;;;;4994288;28;99867;-61
2022/07/07 10:24:38;;;;;;;0.47;0.43;;;;;;;;;;4991912;28;99373;-61
2022/07/07 10:27:05;;;;;;;0.88;0.43;;;;;;;;;;4990247;28;101561;-62
2022/07/07 10:29:34;;;;;;;0.68;0.50;;;;;;;;;;4991683;28;98564;-61
2022/07/07 10:32:00;;;;;;;1.25;0.40;;;;;;;;;;4991577;28;99717;-62
2022/07/07 10:34:28;;;;;;;0.65;0.50;;;;;;;;;;4991001;28;100121;-62
2022/07/07 10:36:57;;;;;;;2.25;0.65;;;;;;;;;;4991489;28;98477;-61
2022/07/07 10:39:23;;;;;;;0.63;0.50;;;;;;;;;;4991534;28;99247;-63
2022/07/07 10:41:54;;;;;;;1.33;0.75;;;;;;;;;;4990725;28;99575;-61
2022/07/07 10:44:21;;;;;;;1.83;0.45;;;;;;;;;;4994776;28;97806;-61
2022/07/07 10:47:06;;;;;;;1.65;0.50;;;;;;;;;;4989635;28;99582;-61
2022/07/07 10:49:41;;;;;;;1.35;0.57;;;;;;;;;;4991401;28;98538;-61
2022/07/07 10:52:16;;;;;;;1.05;0.40;;;;;;;;;;4990539;28;99191;-61
2022/07/07 10:54:44;;;;;;;1.20;0.60;;;;;;;;;;4991157;28;100736;-61
2022/07/07 10:57:10;;;;;;;0.30;0.28;;;;;;;;;;4991252;28;98488;-61
2022/07/07 11:00:09;;;;;;;0.55;0.47;;;;;;;;;;4991245;28;99236;-61
2022/07/07 11:02:35;;;;;;;3.33;0.70;;;;;;;;;;4990058;28;101647;-61
2022/07/07 11:05:14;;;;;;;0.85;0.50;;;;;;;;;;4991295;28;98510;-62
2022/07/07 11:08:03;;;;;;;0.85;0.50;;;;;;;;;;4993905;28;99864;-61
2022/07/07 11:10:38;;;;;;;0.98;0.40;;;;;;;;;;4991597;28;97810;-61
2022/07/07 11:13:16;;;;;;;0.60;0.60;;;;;;;;;;4990794;28;98716;-61
2022/07/07 11:15:43;;;;;;;1.30;0.60;;;;;;;;;;4990608;28;99632;-61
2022/07/07 11:18:13;;;;;;;1.13;0.40;;;;;;;;;;4990117;28;99539;-61
2022/07/07 11:20:54;;;;;;;1.35;0.63;;;;;;;;;;4989595;28;100223;-61
2022/07/07 11:23:21;;;;;;;3.00;0.80;;;;;;;;;;4990265;28;99886;-62
2022/07/07 11:25:52;;;;;;;1.75;0.40;;;;;;;;;;4990987;28;98530;-61
2022/07/07 11:28:19;;;;;;;0.77;0.50;;;;;;;;;;4993875;28;100288;-61
2022/07/07 11:30:45;;;;;;;0.47;0.40;;;;;;;;;;4990759;28;98561;-61
2022/07/07 11:33:12;;;;;;;0.63;0.57;;;;;;;;;;4990944;28;100413;-61
2022/07/07 11:35:40;;;;;;;0.60;0.50;;;;;;;;;;4990909;28;99119;-61
2022/07/07 11:38:09;;;;;;;0.73;0.50;;;;;;;;;;4990682;28;98573;-61
2022/07/07 11:40:37;;;;;;;1.45;0.60;;;;;;;;;;4994182;28;99197;-61
2022/07/07 11:43:05;;;;;;;2.35;0.50;;;;;;;;;;4993059;28;100288;-61
2022/07/07 11:45:38;;;;;;;0.88;0.50;;;;;;;;;;4994385;28;98437;-61
2022/07/07 11:48:07;;;;;;;0.57;0.50;;;;;;;;;;4993911;28;99440;-61
2022/07/07 11:50:35;;;;;;;0.90;0.60;;;;;;;;;;4997196;28;99677;-61
2022/07/07 11:53:02;;;;;;;0.98;0.40;;;;;;;;;;4994129;28;99313;-61
2022/07/07 11:55:29;;;;;;;0.73;0.40;;;;;;;;;;4993820;28;99533;-61
2022/07/07 11:57:56;;;;;;;1.17;0.50;;;;;;;;;;4993849;28;98457;-61
2022/07/07 12:00:24;;;;;;;1.02;0.50;;;;;;;;;;4994476;28;99223;-61
2022/07/07 12:02:52;;;;;;;0.68;0.52;;;;;;;;;;4993181;28;99592;-62
2022/07/07 12:05:19;;;;;;;1.13;0.50;;;;;;;;;;4993542;28;98621;-61
2022/07/07 12:07:58;;;;;;;1.30;0.60;;;;;;;;;;4993477;28;100321;-61
2022/07/07 12:10:34;;;;;;;1.08;0.70;;;;;;;;;;4992628;28;100966;-61
2022/07/07 12:13:01;;;;;;;1.52;0.50;;;;;;;;;;4996977;28;98521;-62
2022/07/07 12:15:29;;;;;;;0.82;0.52;;;;;;;;;;4992834;28;99486;-62
2022/07/07 12:17:57;;;;;;;1.30;0.70;;;;;;;;;;4993160;28;98560;-61
2022/07/07 12:20:24;;;;;;;1.02;0.57;;;;;;;;;;4993608;28;99652;-61
2022/07/07 12:22:54;;;;;;;0.68;0.30;;;;;;;;;;4992928;28;99585;-61
2022/07/07 12:25:20;;;;;;;;;;;;;;;;;;4994422;28;97800;-62
2022/07/07 12:28:07;;;;;;;1.17;0.50;;;;;;;;;;4994365;28;128675;-61
2022/07/07 12:30:50;;;;;;;1.02;0.40;;;;;;;;;;4993153;28;99667;-61
2022/07/07 12:33:30;;;;;;;0.52;0.50;;;;;;;;;;4992981;28;99297;-61
2022/07/07 12:35:59;;;;;;;1.30;0.55;;;;;;;;;;4996304;28;100284;-61
2022/07/07 12:38:42;;;;;;;1.15;0.60;;;;;;;;;;4993191;28;98476;-61
2022/07/07 12:41:18;;;;;;;0.77;0.40;;;;;;;;;;4993432;28;99489;-61
2022/07/07 12:43:45;;;;;;;0.57;0.47;;;;;;;;;;4992442;28;99602;-61
2022/07/07 12:46:11;;;;;;;1.08;0.60;;;;;;;;;;4993139;28;98818;-61
2022/07/07 12:48:41;;;;;;;1.25;0.40;;;;;;;;;;4993144;28;99493;-61
2022/07/07 12:51:07;;;;;;;1.13;0.60;;;;;;;;;;4992764;28;99728;-61
2022/07/07 12:53:37;;;;;;;0.63;0.40;;;;;;;;;;4993203;28;98523;-62
2022/07/07 12:56:07;;;;;;;0.75;0.50;;;;;;;;;;4993287;28;100273;-61
2022/07/07 12:58:48;;;;;;;1.45;0.60;;;;;;;;;;4994360;28;100658;-61
2022/07/07 13:01:16;;;;;;;2.05;0.30;;;;;;;;;;4993009;28;99950;-61
2022/07/07 13:03:45;;;;;;;1.02;0.50;;;;;;;;;;4992219;28;100651;-61
2022/07/07 13:06:11;;;;;;;2.20;0.70;;;;;;;;;;4992802;28;98625;-61
2022/07/07 13:08:38;;;;;;;0.88;0.60;;;;;;;;;;4992917;28;99245;-61
2022/07/07 13:11:05;;;;;;;0.68;0.57;;;;;;;;;;4992292;28;99474;-61
2022/07/07 13:13:31;;;;;;;0.70;0.60;;;;;;;;;;4992031;28;98671;-61
2022/07/07 13:15:58;;;;;;;1.50;0.50;;;;;;;;;;4993045;28;99242;-61
2022/07/07 13:18:27;;;;;;;1.98;0.93;;;;;;;;;;4992179;28;99784;-61
2022/07/07 13:20:57;;;;;;;1.08;0.55;;;;;;;;;;4995839;28;98447;-61
2022/07/07 13:23:24;;;;;;;1.30;0.70;;;;;;;;;;4992105;28;101531;-61
2022/07/07 13:25:50;;;;;;;1.95;0.80;;;;;;;;;;4992585;28;98504;-61
2022/07/07 13:28:17;;;;;;;1.05;0.50;;;;;;;;;;4992609;28;99405;-61
2022/07/07 13:30:50;;;;;;;1.67;0.80;;;;;;;;;;4992335;28;100472;-61
2022/07/07 13:33:17;;;;;;;2.28;0.90;;;;;;;;;;4991675;28;98598;-62
2022/07/07 13:35:44;;;;;;;1.45;0.73;;;;;;;;;;4992644;28;100242;-61
2022/07/07 13:38:10;;;;;;;1.08;0.50;;;;;;;;;;4991853;28;99534;-61
2022/07/07 13:40:37;;;;;;;2.03;0.70;;;;;;;;;;4996157;28;98228;-61
2022/07/07 13:43:13;;;;;;;1.77;0.47;;;;;;;;;;4991609;28;99526;-61
2022/07/07 13:45:40;;;;;;;2.22;0.70;;;;;;;;;;4992182;28;98609;-61
2022/07/07 13:48:06;;;;;;;1.15;0.70;;;;;;;;;;4992010;28;100398;-61
2022/07/07 13:50:32;;;;;;;1.15;0.70;;;;;;;;;;4991772;28;99816;-61
2022/07/07 13:52:59;;;;;;;1.90;0.60;;;;;;;;;;4992306;28;98508;-61
2022/07/07 13:55:25;;;;;;;4.38;0.80;;;;;;;;;;4992015;28;99225;-61
2022/07/07 13:57:51;;;;;;;1.38;0.70;;;;;;;;;;4991734;28;99546;-61
2022/07/07 14:00:18;;;;;;;2.10;0.77;;;;;;;;;;4991946;28;98511;-61
2022/07/07 14:02:47;;;;;;;2.35;0.98;;;;;;;;;;4993622;28;99419;-61
2022/07/07 14:05:14;;;;;;;1.83;0.65;;;;;;;;;;4992231;28;97776;-61
2022/07/07 14:07:41;;;;;;;1.48;0.70;;;;;;;;;;4991858;28;98608;-61
2022/07/07 14:10:08;;;;;;;2.63;0.52;;;;;;;;;;4991329;28;99960;-61
2022/07/07 14:12:35;;;;;;;2.13;0.80;;;;;;;;;;4991457;28;99236;-61
2022/07/07 14:15:02;;;;;;;1.17;0.70;;;;;;;;;;4991778;28;101310;-61
2022/07/07 14:17:28;;;;;;;2.35;0.90;;;;;;;;;;4991005;28;99652;-61
2022/07/07 14:19:55;;;;;;;1.73;0.80;;;;;;;;;;4991841;28;98525;-62
2022/07/07 14:22:22;;;;;;;3.28;0.95;;;;;;;;;;4991979;28;99504;-61
2022/07/07 14:24:48;;;;;;;2.25;0.82;;;;;;;;;;4994365;28;99497;-62
2022/07/07 14:27:14;;;;;;;1.73;0.70;;;;;;;;;;4991468;28;99118;-61
2022/07/07 14:29:41;;;;;;;1.95;0.75;;;;;;;;;;4991687;28;98775;-61
2022/07/07 14:32:07;;;;;;;2.92;0.60;;;;;;;;;;4991793;28;98484;-62
2022/07/07 14:34:33;;;;;;;1.67;0.90;;;;;;;;;;4991599;28;99457;-61
2022/07/07 14:37:00;;;;;;;2.25;0.73;;;;;;;;;;4990477;28;100581;-62
2022/07/07 14:39:26;;;;;;;0.73;0.65;;;;;;;;;;4991107;28;98585;-61
2022/07/07 14:41:53;;;;;;;1.50;0.70;;;;;;;;;;4991329;28;99514;-61
2022/07/07 14:44:19;;;;;;;1.38;0.68;;;;;;;;;;4991047;28;100508;-61